Time;durP1;ratioP1;P1;durP2;ratioP2;P2;SDS_P1;SDS_P2;PMS_P1;PMS_P2;Temp;Humidity;BMP_temperature;BMP_pressure;BME280_temperature;BME280_humidity;BME280_pressure;Samples;Min_cycle;Max_cycle;Signal;HPM_P1;HPM_P2
2023/06/26 00:02:09;;;;;;;3.07;2.10;;;;;;;;;;4952384;28;20264;-84
2023/06/26 00:04:38;;;;;;;2.30;2.10;;;;;;;;;;4952278;28;20202;-85
2023/06/26 00:07:06;;;;;;;1.53;1.37;;;;;;;;;;4952203;28;20207;-84
2023/06/26 00:09:35;;;;;;;5.57;3.10;;;;;;;;;;4952003;28;20197;-85
2023/06/26 00:12:04;;;;;;;2.40;2.17;;;;;;;;;;4952107;28;20215;-85
2023/06/26 00:14:32;;;;;;;3.10;2.77;;;;;;;;;;4952939;28;20221;-84
2023/06/26 00:17:00;;;;;;;3.90;1.70;;;;;;;;;;4952253;28;20217;-85
2023/06/26 00:19:30;;;;;;;3.57;1.93;;;;;;;;;;4951813;28;20222;-84
2023/06/26 00:21:59;;;;;;;3.97;1.83;;;;;;;;;;4951903;28;20226;-84
2023/06/26 00:24:28;;;;;;;2.97;2.67;;;;;;;;;;4952164;28;20206;-84
2023/06/26 00:26:56;;;;;;;4.60;3.27;;;;;;;;;;4951368;28;20228;-84
2023/06/26 00:29:24;;;;;;;5.43;3.57;;;;;;;;;;4952004;28;20217;-85
2023/06/26 00:31:53;;;;;;;4.47;3.73;;;;;;;;;;4952112;28;20202;-87
2023/06/26 00:34:21;;;;;;;2.83;2.63;;;;;;;;;;4951965;28;20217;-86
2023/06/26 00:36:51;;;;;;;7.33;3.97;;;;;;;;;;4951376;28;20217;-84
2023/06/26 00:39:20;;;;;;;4.07;3.30;;;;;;;;;;4951819;28;20206;-84
2023/06/26 00:41:48;;;;;;;3.83;2.80;;;;;;;;;;4952030;28;20213;-85
2023/06/26 00:44:17;;;;;;;4.27;2.63;;;;;;;;;;4951754;28;20194;-84
2023/06/26 00:46:45;;;;;;;5.87;2.90;;;;;;;;;;4951430;28;20213;-86
2023/06/26 00:49:14;;;;;;;3.90;3.37;;;;;;;;;;4952038;28;20206;-86
2023/06/26 00:51:43;;;;;;;4.97;3.10;;;;;;;;;;4951868;28;20213;-86
2023/06/26 00:54:16;;;;;;;2.23;2.00;;;;;;;;;;4951480;28;20245;-86
2023/06/26 00:56:44;;;;;;;4.80;3.87;;;;;;;;;;4951458;28;20210;-87
2023/06/26 00:59:12;;;;;;;3.97;3.57;;;;;;;;;;4951397;28;20199;-87
2023/06/26 01:01:41;;;;;;;6.37;3.60;;;;;;;;;;4951682;28;20215;-86
2023/06/26 01:04:17;;;;;;;5.23;2.33;;;;;;;;;;4951095;28;20212;-87
2023/06/26 01:06:48;;;;;;;2.57;2.27;;;;;;;;;;4951475;28;20213;-87
2023/06/26 01:09:20;;;;;;;9.23;4.93;;;;;;;;;;4951501;28;20267;-86
2023/06/26 01:11:48;;;;;;;6.63;4.17;;;;;;;;;;4951198;28;20207;-87
2023/06/26 01:14:17;;;;;;;8.70;5.07;;;;;;;;;;4951833;28;20212;-86
2023/06/26 01:16:47;;;;;;;3.33;2.43;;;;;;;;;;4951739;28;20209;-87
2023/06/26 01:19:25;;;;;;;4.47;2.23;;;;;;;;;;4951372;28;20202;-86
2023/06/26 01:21:58;;;;;;;9.20;4.10;;;;;;;;;;4951485;28;20300;-84
2023/06/26 01:24:32;;;;;;;5.57;2.57;;;;;;;;;;4951566;28;20228;-84
2023/06/26 01:27:02;;;;;;;3.93;2.60;;;;;;;;;;4951783;28;20243;-84
2023/06/26 01:29:32;;;;;;;9.33;4.90;;;;;;;;;;4950556;28;20206;-84
2023/06/26 01:32:01;;;;;;;2.70;2.37;;;;;;;;;;4951582;28;20207;-85
2023/06/26 01:34:31;;;;;;;4.70;2.83;;;;;;;;;;4950983;28;20204;-84
2023/06/26 01:36:59;;;;;;;5.40;2.93;;;;;;;;;;4951312;28;20212;-84
2023/06/26 01:39:27;;;;;;;8.30;5.80;;;;;;;;;;4950661;28;20208;-85
2023/06/26 01:41:56;;;;;;;10.00;5.27;;;;;;;;;;4951232;28;20202;-84
2023/06/26 01:44:28;;;;;;;13.20;5.27;;;;;;;;;;4951737;28;20215;-84
2023/06/26 01:47:01;;;;;;;11.20;3.97;;;;;;;;;;4950704;28;20208;-84
2023/06/26 01:49:41;;;;;;;7.93;4.33;;;;;;;;;;4950799;28;20232;-84
2023/06/26 01:52:14;;;;;;;9.70;4.10;;;;;;;;;;4950708;28;20199;-84
2023/06/26 01:54:50;;;;;;;7.07;4.37;;;;;;;;;;4950360;28;20240;-85
2023/06/26 01:57:19;;;;;;;7.00;3.50;;;;;;;;;;4951132;28;20212;-84
2023/06/26 01:59:49;;;;;;;6.50;3.67;;;;;;;;;;4951087;28;20216;-86
2023/06/26 02:02:18;;;;;;;12.53;4.77;;;;;;;;;;4950811;28;20205;-87
2023/06/26 02:04:48;;;;;;;5.37;3.03;;;;;;;;;;4950758;28;20204;-87
2023/06/26 02:07:17;;;;;;;10.87;4.97;;;;;;;;;;4951148;28;20283;-87
2023/06/26 02:09:46;;;;;;;5.60;2.50;;;;;;;;;;4950966;28;20216;-87
2023/06/26 02:12:14;;;;;;;2.40;2.20;;;;;;;;;;4950461;28;20211;-87
2023/06/26 02:14:43;;;;;;;8.63;4.17;;;;;;;;;;4950757;28;20208;-87
2023/06/26 02:17:13;;;;;;;11.57;6.40;;;;;;;;;;4951047;28;20218;-86
2023/06/26 02:19:47;;;;;;;3.20;2.87;;;;;;;;;;4950619;28;20207;-87
2023/06/26 02:22:16;;;;;;;9.03;4.20;;;;;;;;;;4950534;28;20214;-87
2023/06/26 02:24:45;;;;;;;5.93;3.03;;;;;;;;;;4950525;28;20213;-87
2023/06/26 02:27:13;;;;;;;13.37;6.10;;;;;;;;;;4950582;28;20259;-86
2023/06/26 02:29:42;;;;;;;10.80;3.27;;;;;;;;;;4950198;28;20220;-87
2023/06/26 02:32:12;;;;;;;5.77;4.23;;;;;;;;;;4950255;28;20190;-87
2023/06/26 02:34:41;;;;;;;13.90;7.13;;;;;;;;;;4951016;28;20210;-86
2023/06/26 02:37:10;;;;;;;1.90;1.60;;;;;;;;;;4949570;28;20297;-87
2023/06/26 02:39:38;;;;;;;12.20;4.17;;;;;;;;;;4950390;28;20212;-86
2023/06/26 02:42:10;;;;;;;3.60;3.30;;;;;;;;;;4950765;28;20271;-84
2023/06/26 02:44:38;;;;;;;7.37;4.83;;;;;;;;;;4950445;28;20215;-84
2023/06/26 02:47:07;;;;;;;10.63;4.57;;;;;;;;;;4949754;28;20211;-84
2023/06/26 02:49:37;;;;;;;7.33;2.17;;;;;;;;;;4950407;28;20208;-84
2023/06/26 02:52:05;;;;;;;9.23;5.37;;;;;;;;;;4953251;28;20213;-84
2023/06/26 02:54:34;;;;;;;1.90;1.70;;;;;;;;;;4953092;28;20233;-86
2023/06/26 02:57:03;;;;;;;4.83;3.27;;;;;;;;;;4953533;28;20216;-84
2023/06/26 02:59:31;;;;;;;8.63;4.93;;;;;;;;;;4953356;28;20221;-84
2023/06/26 03:01:59;;;;;;;4.53;2.73;;;;;;;;;;4953643;28;20210;-85
2023/06/26 03:04:28;;;;;;;4.73;3.17;;;;;;;;;;4952840;28;20206;-84
2023/06/26 03:06:58;;;;;;;4.40;1.77;;;;;;;;;;4953247;28;20204;-84
2023/06/26 03:09:27;;;;;;;7.80;3.00;;;;;;;;;;4953289;28;20217;-85
2023/06/26 03:11:55;;;;;;;1.93;1.83;;;;;;;;;;4953096;28;20294;-84
2023/06/26 03:14:24;;;;;;;1.57;1.47;;;;;;;;;;4953046;28;20213;-84
2023/06/26 03:16:52;;;;;;;4.60;2.10;;;;;;;;;;4953626;28;20240;-85
2023/06/26 03:19:21;;;;;;;1.70;1.60;;;;;;;;;;4953393;28;20202;-84
2023/06/26 03:21:50;;;;;;;2.00;1.13;;;;;;;;;;4952665;28;20260;-85
2023/06/26 03:24:19;;;;;;;5.27;2.77;;;;;;;;;;4953520;28;20209;-84
2023/06/26 03:26:48;;;;;;;2.90;2.20;;;;;;;;;;4953013;28;20211;-84
2023/06/26 03:29:17;;;;;;;6.70;2.90;;;;;;;;;;4952853;28;20331;-84
2023/06/26 03:31:45;;;;;;;1.83;1.63;;;;;;;;;;4952590;28;20205;-84
2023/06/26 03:34:13;;;;;;;6.00;2.33;;;;;;;;;;4953117;28;20213;-84
2023/06/26 03:36:42;;;;;;;3.20;1.90;;;;;;;;;;4952860;28;20198;-87
2023/06/26 03:39:10;;;;;;;4.43;2.13;;;;;;;;;;4953021;28;20218;-87
2023/06/26 03:41:40;;;;;;;11.83;3.10;;;;;;;;;;4953429;28;20222;-87
2023/06/26 03:44:08;;;;;;;1.80;1.70;;;;;;;;;;4953476;28;20216;-86
2023/06/26 03:46:37;;;;;;;7.17;2.70;;;;;;;;;;4952778;28;20209;-87
2023/06/26 03:49:05;;;;;;;2.07;1.87;;;;;;;;;;4953014;28;20225;-87
2023/06/26 03:51:38;;;;;;;4.20;2.50;;;;;;;;;;4953096;28;20267;-87
2023/06/26 03:54:07;;;;;;;5.30;2.60;;;;;;;;;;4953375;28;20248;-87
2023/06/26 03:56:35;;;;;;;3.07;2.17;;;;;;;;;;4953178;28;20237;-87
2023/06/26 03:59:05;;;;;;;3.93;2.63;;;;;;;;;;4953006;28;20196;-87
2023/06/26 04:01:34;;;;;;;2.90;2.17;;;;;;;;;;4953124;28;20215;-87
2023/06/26 04:04:02;;;;;;;7.67;2.70;;;;;;;;;;4952978;28;20302;-87
2023/06/26 04:06:32;;;;;;;3.37;2.57;;;;;;;;;;4953373;28;20216;-88
2023/06/26 04:09:00;;;;;;;3.37;2.90;;;;;;;;;;4952605;28;20239;-87
2023/06/26 04:11:29;;;;;;;0.97;0.97;;;;;;;;;;4952483;28;20233;-87
2023/06/26 04:13:57;;;;;;;2.20;2.00;;;;;;;;;;4952100;28;20231;-84
2023/06/26 04:16:27;;;;;;;6.00;2.60;;;;;;;;;;4952527;28;20235;-84
2023/06/26 04:18:56;;;;;;;2.00;1.87;;;;;;;;;;4952354;28;20203;-84
2023/06/26 04:21:25;;;;;;;0.73;0.73;;;;;;;;;;4952019;28;20205;-84
2023/06/26 04:23:54;;;;;;;1.67;1.57;;;;;;;;;;4952018;28;20204;-84
2023/06/26 04:26:22;;;;;;;1.87;1.53;;;;;;;;;;4952215;28;20214;-84
2023/06/26 04:28:51;;;;;;;0.70;0.70;;;;;;;;;;4951985;28;20228;-84
2023/06/26 04:31:19;;;;;;;4.50;1.53;;;;;;;;;;4952053;28;20208;-84
2023/06/26 04:33:50;;;;;;;1.33;1.23;;;;;;;;;;4952111;28;20209;-84
2023/06/26 04:36:19;;;;;;;2.17;1.97;;;;;;;;;;4951947;28;20203;-84
2023/06/26 04:38:49;;;;;;;1.60;1.50;;;;;;;;;;4951819;28;20215;-84
2023/06/26 04:41:18;;;;;;;2.57;1.63;;;;;;;;;;4951965;28;20215;-84
2023/06/26 04:43:46;;;;;;;1.93;1.00;;;;;;;;;;4951918;28;20205;-84
2023/06/26 04:46:15;;;;;;;5.67;3.27;;;;;;;;;;4951964;28;20222;-84
2023/06/26 04:48:44;;;;;;;1.07;1.00;;;;;;;;;;4951239;28;20303;-84
2023/06/26 04:51:14;;;;;;;2.07;1.70;;;;;;;;;;4952328;28;20209;-84
2023/06/26 04:53:43;;;;;;;3.83;1.73;;;;;;;;;;4952047;28;20248;-84
2023/06/26 04:56:11;;;;;;;4.73;2.50;;;;;;;;;;4951563;28;20210;-84
2023/06/26 04:58:40;;;;;;;2.03;1.43;;;;;;;;;;4951484;28;20312;-84
2023/06/26 05:01:08;;;;;;;2.00;1.73;;;;;;;;;;4951892;28;20201;-84
2023/06/26 05:03:37;;;;;;;4.60;2.07;;;;;;;;;;4952055;28;20220;-84
2023/06/26 05:06:08;;;;;;;1.63;0.87;;;;;;;;;;4951252;28;20211;-83
2023/06/26 05:08:38;;;;;;;3.70;2.23;;;;;;;;;;4951568;28;20234;-84
2023/06/26 05:11:10;;;;;;;9.43;3.43;;;;;;;;;;4951426;28;20219;-84
2023/06/26 05:13:38;;;;;;;4.17;2.10;;;;;;;;;;4950718;28;20193;-82
2023/06/26 05:16:08;;;;;;;5.17;1.80;;;;;;;;;;4951537;28;20212;-83
2023/06/26 05:18:37;;;;;;;0.70;0.70;;;;;;;;;;4951124;28;20198;-83
2023/06/26 05:21:06;;;;;;;2.90;1.53;;;;;;;;;;4951440;28;20203;-83
2023/06/26 05:23:36;;;;;;;2.07;1.80;;;;;;;;;;4951123;28;20204;-83
2023/06/26 05:26:07;;;;;;;1.60;1.50;;;;;;;;;;4951608;28;20205;-83
2023/06/26 05:28:37;;;;;;;10.23;4.10;;;;;;;;;;4951076;28;20227;-83
2023/06/26 05:31:06;;;;;;;4.33;2.70;;;;;;;;;;4950786;28;20212;-83
2023/06/26 05:33:36;;;;;;;3.67;2.47;;;;;;;;;;4951589;28;20206;-86
2023/06/26 05:36:06;;;;;;;3.60;2.47;;;;;;;;;;4951620;28;20208;-85
2023/06/26 05:38:35;;;;;;;5.23;3.07;;;;;;;;;;4951309;28;20194;-83
2023/06/26 05:41:09;;;;;;;2.87;2.00;;;;;;;;;;4950928;28;20204;-82
2023/06/26 05:43:37;;;;;;;2.07;1.53;;;;;;;;;;4951265;28;20204;-83
2023/06/26 05:46:06;;;;;;;3.93;1.60;;;;;;;;;;4951298;28;20204;-82
2023/06/26 05:48:34;;;;;;;7.83;4.27;;;;;;;;;;4950603;28;20217;-83
2023/06/26 05:51:04;;;;;;;2.23;2.03;;;;;;;;;;4950872;28;20221;-83
2023/06/26 05:53:33;;;;;;;1.90;1.80;;;;;;;;;;4950625;28;20261;-82
2023/06/26 05:56:02;;;;;;;11.03;4.07;;;;;;;;;;4951535;28;20221;-83
2023/06/26 05:58:32;;;;;;;2.63;2.43;;;;;;;;;;4950352;28;20232;-83
2023/06/26 06:01:00;;;;;;;3.00;1.80;;;;;;;;;;4951320;28;20206;-84
2023/06/26 06:03:29;;;;;;;2.70;1.37;;;;;;;;;;4950786;28;20205;-83
2023/06/26 06:05:57;;;;;;;2.40;1.60;;;;;;;;;;4950647;28;20233;-82
2023/06/26 06:08:26;;;;;;;2.17;1.57;;;;;;;;;;4950659;28;20208;-82
2023/06/26 06:10:54;;;;;;;1.67;0.93;;;;;;;;;;4951064;28;20331;-86
2023/06/26 06:13:23;;;;;;;8.40;3.17;;;;;;;;;;4951147;28;20301;-85
2023/06/26 06:15:52;;;;;;;7.97;3.17;;;;;;;;;;4950873;28;20207;-86
2023/06/26 06:18:21;;;;;;;4.60;2.03;;;;;;;;;;4951065;28;20209;-86
2023/06/26 06:20:50;;;;;;;3.20;1.73;;;;;;;;;;4950858;28;20193;-86
2023/06/26 06:23:18;;;;;;;5.27;2.30;;;;;;;;;;4950309;28;20196;-86
2023/06/26 06:25:46;;;;;;;4.10;2.50;;;;;;;;;;4952067;28;20299;-86
2023/06/26 06:28:16;;;;;;;7.20;2.73;;;;;;;;;;4953968;28;20325;-86
2023/06/26 06:30:47;;;;;;;3.97;1.73;;;;;;;;;;4954482;28;20221;-86
2023/06/26 06:33:17;;;;;;;5.83;1.60;;;;;;;;;;4953886;28;20224;-86
2023/06/26 06:35:46;;;;;;;4.33;2.33;;;;;;;;;;4954285;28;20260;-86
2023/06/26 06:38:14;;;;;;;2.97;2.00;;;;;;;;;;4954108;28;20209;-85
2023/06/26 06:40:43;;;;;;;5.03;1.53;;;;;;;;;;4953520;28;20225;-85
2023/06/26 06:43:11;;;;;;;8.20;2.60;;;;;;;;;;4953662;28;20209;-80
2023/06/26 06:45:40;;;;;;;5.33;2.37;;;;;;;;;;4953500;28;20234;-80
2023/06/26 06:48:08;;;;;;;9.10;2.10;;;;;;;;;;4953112;28;20206;-81
2023/06/26 06:50:38;;;;;;;3.87;2.67;;;;;;;;;;4953153;28;20230;-86
2023/06/26 06:53:07;;;;;;;2.17;1.73;;;;;;;;;;4953834;28;20241;-86
2023/06/26 06:55:36;;;;;;;0.90;0.83;;;;;;;;;;4953291;28;20249;-80
2023/06/26 06:58:04;;;;;;;2.93;1.93;;;;;;;;;;4953026;28;20267;-80
2023/06/26 07:00:33;;;;;;;2.67;1.57;;;;;;;;;;4953234;28;20190;-80
2023/06/26 07:03:02;;;;;;;4.20;1.87;;;;;;;;;;4953547;28;20207;-80
2023/06/26 07:05:30;;;;;;;6.37;2.50;;;;;;;;;;4953303;28;20299;-80
2023/06/26 07:08:00;;;;;;;2.43;1.10;;;;;;;;;;4952943;28;20218;-80
2023/06/26 07:10:30;;;;;;;8.07;3.23;;;;;;;;;;4953245;28;20255;-80
2023/06/26 07:12:58;;;;;;;4.57;2.13;;;;;;;;;;4953581;28;20210;-80
2023/06/26 07:15:26;;;;;;;2.77;1.20;;;;;;;;;;4953232;28;20204;-80
2023/06/26 07:17:55;;;;;;;4.27;1.67;;;;;;;;;;4953108;28;20212;-80
2023/06/26 07:20:24;;;;;;;4.30;2.73;;;;;;;;;;4953317;28;20206;-80
2023/06/26 07:22:54;;;;;;;7.70;1.90;;;;;;;;;;4953084;28;20212;-80
2023/06/26 07:25:23;;;;;;;2.83;1.30;;;;;;;;;;4952459;28;20219;-80
2023/06/26 07:27:52;;;;;;;5.53;1.70;;;;;;;;;;4952700;28;20216;-80
2023/06/26 07:30:20;;;;;;;3.73;1.80;;;;;;;;;;4952796;28;20215;-80
2023/06/26 07:32:49;;;;;;;2.73;1.67;;;;;;;;;;4952459;28;20204;-80
2023/06/26 07:35:18;;;;;;;3.53;1.97;;;;;;;;;;4952827;28;20202;-80
2023/06/26 07:37:46;;;;;;;3.70;1.60;;;;;;;;;;4952628;28;20213;-80
2023/06/26 07:40:17;;;;;;;1.50;1.40;;;;;;;;;;4952446;28;20250;-80
2023/06/26 07:42:47;;;;;;;1.57;1.07;;;;;;;;;;4952481;28;20290;-80
2023/06/26 07:45:16;;;;;;;5.30;1.50;;;;;;;;;;4952934;28;20200;-80
2023/06/26 07:47:44;;;;;;;5.77;1.60;;;;;;;;;;4952321;28;20212;-80
2023/06/26 07:50:15;;;;;;;3.80;2.00;;;;;;;;;;4952603;28;20209;-80
2023/06/26 07:52:44;;;;;;;2.27;1.30;;;;;;;;;;4952449;28;20232;-80
2023/06/26 07:55:12;;;;;;;5.07;1.93;;;;;;;;;;4952615;28;20242;-80
2023/06/26 07:57:41;;;;;;;5.27;2.23;;;;;;;;;;4952204;28;20206;-80
2023/06/26 08:00:11;;;;;;;5.70;1.43;;;;;;;;;;4952808;28;20268;-80
2023/06/26 08:02:40;;;;;;;8.07;3.20;;;;;;;;;;4952586;28;20203;-80
2023/06/26 08:05:09;;;;;;;6.57;1.93;;;;;;;;;;4952494;28;20244;-80
2023/06/26 08:07:39;;;;;;;7.47;1.70;;;;;;;;;;4951414;28;20195;-80
2023/06/26 08:10:07;;;;;;;4.00;1.53;;;;;;;;;;4952170;28;20209;-80
2023/06/26 08:12:40;;;;;;;6.07;2.07;;;;;;;;;;4952499;28;20239;-80
2023/06/26 08:15:09;;;;;;;2.17;1.23;;;;;;;;;;4952644;28;20221;-80
2023/06/26 08:17:39;;;;;;;2.30;1.70;;;;;;;;;;4951698;28;20212;-80
2023/06/26 08:20:09;;;;;;;2.47;0.90;;;;;;;;;;4952839;28;20243;-86
2023/06/26 08:22:37;;;;;;;1.87;0.90;;;;;;;;;;4952622;28;20247;-85
2023/06/26 08:25:06;;;;;;;7.33;2.30;;;;;;;;;;4951781;28;20220;-86
2023/06/26 08:27:34;;;;;;;2.47;1.53;;;;;;;;;;4952787;28;20223;-85
2023/06/26 08:30:04;;;;;;;2.43;1.10;;;;;;;;;;4952179;28;20201;-85
2023/06/26 08:32:33;;;;;;;5.70;2.00;;;;;;;;;;4952166;28;20323;-85
2023/06/26 08:35:03;;;;;;;5.87;2.70;;;;;;;;;;4951926;28;20202;-85
2023/06/26 08:37:32;;;;;;;2.03;1.87;;;;;;;;;;4951760;28;20207;-85
2023/06/26 08:40:01;;;;;;;5.90;1.80;;;;;;;;;;4952148;28;20208;-86
2023/06/26 08:42:30;;;;;;;6.03;1.10;;;;;;;;;;4951935;28;20250;-86
2023/06/26 08:44:58;;;;;;;4.60;1.60;;;;;;;;;;4952107;28;20209;-86
2023/06/26 08:47:31;;;;;;;6.63;1.70;;;;;;;;;;4951758;28;20276;-85
2023/06/26 08:50:04;;;;;;;1.63;1.27;;;;;;;;;;4951722;28;20228;-85
2023/06/26 08:52:37;;;;;;;9.53;2.40;;;;;;;;;;4951575;28;20303;-85
2023/06/26 08:55:08;;;;;;;2.03;1.50;;;;;;;;;;4951882;28;20242;-86
2023/06/26 08:57:37;;;;;;;2.13;1.23;;;;;;;;;;4952058;28;20206;-86
2023/06/26 09:00:08;;;;;;;2.57;1.77;;;;;;;;;;4951739;28;20205;-85
2023/06/26 09:02:37;;;;;;;3.13;1.60;;;;;;;;;;4951948;28;20248;-83
2023/06/26 09:05:08;;;;;;;2.70;1.87;;;;;;;;;;4951779;28;20225;-86
2023/06/26 09:07:38;;;;;;;3.83;1.33;;;;;;;;;;4951154;28;20294;-86
2023/06/26 09:10:09;;;;;;;5.97;2.77;;;;;;;;;;4951539;28;20221;-86
2023/06/26 09:12:38;;;;;;;2.87;1.50;;;;;;;;;;4951535;28;20233;-85
2023/06/26 09:15:07;;;;;;;5.33;1.33;;;;;;;;;;4952004;28;20221;-86
2023/06/26 09:17:40;;;;;;;2.83;1.27;;;;;;;;;;4950555;28;20202;-85
2023/06/26 09:20:10;;;;;;;4.43;1.93;;;;;;;;;;4952380;28;20319;-85
2023/06/26 09:22:40;;;;;;;1.73;1.40;;;;;;;;;;4952062;28;20254;-85
2023/06/26 09:25:09;;;;;;;5.90;2.37;;;;;;;;;;4951625;28;20207;-85
2023/06/26 09:27:37;;;;;;;2.37;1.43;;;;;;;;;;4951514;28;20225;-85
2023/06/26 09:30:07;;;;;;;1.73;1.40;;;;;;;;;;4952067;28;20202;-85
2023/06/26 09:32:36;;;;;;;4.23;2.20;;;;;;;;;;4951453;28;20243;-84
2023/06/26 09:35:06;;;;;;;4.33;1.57;;;;;;;;;;4950979;28;20201;-85
2023/06/26 09:37:36;;;;;;;3.77;1.87;;;;;;;;;;4951552;28;20221;-85
2023/06/26 09:40:06;;;;;;;11.13;1.63;;;;;;;;;;4951462;28;20209;-85
2023/06/26 09:42:35;;;;;;;6.23;2.07;;;;;;;;;;4951183;28;20209;-85
2023/06/26 09:45:04;;;;;;;7.50;2.30;;;;;;;;;;4951302;28;20209;-85
2023/06/26 09:47:32;;;;;;;4.80;0.80;;;;;;;;;;4951174;28;20209;-85
2023/06/26 09:50:01;;;;;;;4.43;2.10;;;;;;;;;;4951306;28;20299;-85
2023/06/26 09:52:30;;;;;;;4.23;1.47;;;;;;;;;;4950585;28;20233;-85
2023/06/26 09:55:12;;;;;;;3.57;1.87;;;;;;;;;;4950731;28;20247;-85
2023/06/26 09:57:42;;;;;;;4.37;2.20;;;;;;;;;;4951051;28;20258;-85
2023/06/26 10:00:13;;;;;;;5.47;1.90;;;;;;;;;;4951374;28;20263;-84
2023/06/26 10:02:41;;;;;;;1.87;1.20;;;;;;;;;;4954635;28;20215;-85
2023/06/26 10:05:10;;;;;;;1.33;1.13;;;;;;;;;;4954392;28;20202;-84
2023/06/26 10:07:39;;;;;;;4.63;2.37;;;;;;;;;;4953982;28;20300;-84
2023/06/26 10:10:10;;;;;;;2.80;1.17;;;;;;;;;;4954496;28;20210;-85
2023/06/26 10:12:40;;;;;;;9.97;1.77;;;;;;;;;;4953931;28;20237;-85
2023/06/26 10:15:12;;;;;;;2.77;1.23;;;;;;;;;;4954166;28;20260;-85
2023/06/26 10:17:43;;;;;;;0.93;0.57;;;;;;;;;;4954020;28;20377;-85
2023/06/26 10:20:12;;;;;;;2.27;1.60;;;;;;;;;;4954455;28;20266;-84
2023/06/26 10:22:43;;;;;;;6.77;2.37;;;;;;;;;;4954462;28;20210;-84
2023/06/26 10:25:12;;;;;;;0.63;0.63;;;;;;;;;;4954326;28;20197;-84
2023/06/26 10:27:44;;;;;;;8.87;2.37;;;;;;;;;;4953910;28;20227;-85
2023/06/26 10:30:14;;;;;;;2.67;1.47;;;;;;;;;;4954581;28;20202;-85
2023/06/26 10:32:43;;;;;;;2.70;1.60;;;;;;;;;;4954138;28;20219;-85
2023/06/26 10:35:12;;;;;;;5.93;1.80;;;;;;;;;;4954071;28;20206;-85
2023/06/26 10:37:44;;;;;;;5.00;1.97;;;;;;;;;;4954047;28;20238;-85
2023/06/26 10:40:14;;;;;;;3.43;1.73;;;;;;;;;;4954723;28;20236;-85
2023/06/26 10:42:44;;;;;;;2.53;2.00;;;;;;;;;;4954357;28;20194;-85
2023/06/26 10:45:15;;;;;;;5.93;1.97;;;;;;;;;;4953767;28;20301;-84
2023/06/26 10:47:43;;;;;;;2.80;1.20;;;;;;;;;;4953571;28;20208;-85
2023/06/26 10:50:19;;;;;;;22.13;4.00;;;;;;;;;;4954045;28;20256;-85
2023/06/26 10:53:19;;;;;;;4.07;1.57;;;;;;;;;;4954339;28;20250;-85
2023/06/26 10:55:53;;;;;;;1.77;1.20;;;;;;;;;;4953611;28;20236;-85
2023/06/26 10:58:37;;;;;;;2.97;1.60;;;;;;;;;;4953928;28;20213;-85
2023/06/26 11:01:22;;;;;;;6.73;1.97;;;;;;;;;;4953685;28;20204;-85
2023/06/26 11:03:52;;;;;;;11.63;2.60;;;;;;;;;;4953323;28;20200;-86
2023/06/26 11:06:22;;;;;;;2.47;1.17;;;;;;;;;;4953720;28;20203;-85
2023/06/26 11:08:52;;;;;;;1.33;1.23;;;;;;;;;;4952707;28;20287;-85
2023/06/26 11:11:21;;;;;;;1.93;1.30;;;;;;;;;;4953580;28;20223;-85
2023/06/26 11:13:51;;;;;;;1.33;0.90;;;;;;;;;;4953107;28;20232;-85
2023/06/26 11:16:20;;;;;;;2.87;1.37;;;;;;;;;;4953738;28;20214;-86
2023/06/26 11:18:49;;;;;;;3.10;1.10;;;;;;;;;;4952575;28;20200;-86
2023/06/26 11:21:17;;;;;;;3.97;1.47;;;;;;;;;;4953651;28;20203;-85
2023/06/26 11:23:47;;;;;;;0.97;0.97;;;;;;;;;;4953342;28;20285;-86
2023/06/26 11:26:16;;;;;;;2.03;1.03;;;;;;;;;;4952855;28;20209;-86
2023/06/26 11:28:48;;;;;;;3.60;2.50;;;;;;;;;;4952919;28;20227;-86
2023/06/26 11:31:29;;;;;;;2.63;1.67;;;;;;;;;;4953324;28;20246;-85
2023/06/26 11:33:59;;;;;;;4.93;1.73;;;;;;;;;;4953381;28;20249;-85
2023/06/26 11:36:28;;;;;;;3.47;1.40;;;;;;;;;;4953046;28;20211;-86
2023/06/26 11:38:57;;;;;;;6.10;2.10;;;;;;;;;;4953278;28;20214;-86
2023/06/26 11:41:26;;;;;;;5.40;2.27;;;;;;;;;;4953132;28;20203;-86
2023/06/26 11:43:55;;;;;;;3.67;1.57;;;;;;;;;;4952834;28;20209;-86
2023/06/26 11:46:24;;;;;;;3.47;1.33;;;;;;;;;;4953372;28;20215;-86
2023/06/26 11:48:54;;;;;;;6.10;2.20;;;;;;;;;;4952576;28;20209;-86
2023/06/26 11:51:22;;;;;;;4.63;2.17;;;;;;;;;;4952832;28;20209;-85
2023/06/26 11:53:52;;;;;;;2.83;1.43;;;;;;;;;;4952710;28;20218;-86
2023/06/26 11:56:22;;;;;;;5.20;1.90;;;;;;;;;;4952441;28;20295;-86
2023/06/26 11:58:57;;;;;;;3.40;1.43;;;;;;;;;;4952730;28;20207;-85
2023/06/26 12:01:26;;;;;;;3.87;1.50;;;;;;;;;;4952335;28;20208;-85
2023/06/26 12:04:02;;;;;;;1.57;1.27;;;;;;;;;;4952885;28;20206;-85
2023/06/26 12:06:32;;;;;;;5.43;1.30;;;;;;;;;;4952815;28;20301;-85
2023/06/26 12:09:03;;;;;;;5.83;1.17;;;;;;;;;;4952742;28;20264;-85
2023/06/26 12:11:32;;;;;;;6.67;2.27;;;;;;;;;;4952528;28;20263;-85
2023/06/26 12:14:00;;;;;;;5.13;1.90;;;;;;;;;;4952980;28;20228;-85
2023/06/26 12:16:29;;;;;;;4.60;2.07;;;;;;;;;;4952708;28;20279;-85
2023/06/26 12:19:01;;;;;;;1.57;1.47;;;;;;;;;;4952122;28;20230;-85
2023/06/26 12:21:31;;;;;;;1.73;1.40;;;;;;;;;;4952469;28;20296;-85
2023/06/26 12:24:00;;;;;;;3.60;1.43;;;;;;;;;;4951575;28;20212;-85
2023/06/26 12:26:34;;;;;;;3.90;1.57;;;;;;;;;;4951972;28;20203;-84
2023/06/26 12:29:03;;;;;;;4.43;2.50;;;;;;;;;;4952036;28;20300;-86
2023/06/26 12:31:32;;;;;;;1.97;1.70;;;;;;;;;;4952242;28;20330;-84
2023/06/26 12:34:02;;;;;;;3.13;2.03;;;;;;;;;;4952028;28;20318;-84
2023/06/26 12:36:41;;;;;;;2.27;1.37;;;;;;;;;;4952190;28;20215;-84
2023/06/26 12:39:11;;;;;;;1.73;1.40;;;;;;;;;;4952155;28;20272;-84
2023/06/26 12:41:49;;;;;;;3.10;0.90;;;;;;;;;;4951973;28;20216;-85
2023/06/26 12:44:19;;;;;;;3.03;1.83;;;;;;;;;;4951855;28;20204;-85
2023/06/26 12:46:48;;;;;;;4.87;1.90;;;;;;;;;;4952239;28;20248;-85
2023/06/26 12:49:19;;;;;;;8.67;1.40;;;;;;;;;;4951882;28;20231;-82
2023/06/26 12:51:59;;;;;;;4.13;1.77;;;;;;;;;;4952571;28;20208;-83
2023/06/26 12:54:28;;;;;;;1.90;1.30;;;;;;;;;;4951243;28;20243;-83
2023/06/26 12:56:56;;;;;;;2.07;1.23;;;;;;;;;;4952313;28;20215;-82
2023/06/26 12:59:25;;;;;;;4.07;1.70;;;;;;;;;;4952158;28;20300;-83
2023/06/26 13:01:54;;;;;;;4.27;1.30;;;;;;;;;;4952169;28;20204;-83
2023/06/26 13:04:24;;;;;;;2.13;1.37;;;;;;;;;;4951653;28;20208;-82
2023/06/26 13:06:54;;;;;;;4.43;2.40;;;;;;;;;;4952120;28;20207;-83
2023/06/26 13:09:23;;;;;;;2.63;1.00;;;;;;;;;;4952315;28;20232;-83
2023/06/26 13:11:52;;;;;;;1.33;1.13;;;;;;;;;;4952079;28;20215;-83
2023/06/26 13:14:20;;;;;;;1.83;0.60;;;;;;;;;;4952308;28;20225;-83
2023/06/26 13:16:49;;;;;;;1.00;0.80;;;;;;;;;;4952133;28;20260;-83
2023/06/26 13:19:17;;;;;;;3.60;1.67;;;;;;;;;;4951537;28;20210;-83
2023/06/26 13:21:47;;;;;;;4.50;1.63;;;;;;;;;;4951793;28;20216;-83
2023/06/26 13:24:16;;;;;;;2.23;0.60;;;;;;;;;;4951678;28;20225;-83
2023/06/26 13:26:44;;;;;;;1.87;1.30;;;;;;;;;;4951370;28;20263;-83
2023/06/26 13:29:13;;;;;;;1.83;1.23;;;;;;;;;;4951357;28;20213;-83
2023/06/26 13:31:41;;;;;;;1.43;1.33;;;;;;;;;;4951776;28;20209;-83
2023/06/26 13:34:10;;;;;;;1.20;1.10;;;;;;;;;;4951794;28;20224;-83
2023/06/26 13:36:39;;;;;;;0.40;0.40;;;;;;;;;;4951336;28;20216;-83
2023/06/26 13:39:08;;;;;;;8.30;1.33;;;;;;;;;;4951188;28;20212;-83
2023/06/26 13:41:37;;;;;;;0.60;0.60;;;;;;;;;;4951284;28;20206;-83
2023/06/26 13:44:05;;;;;;;9.50;1.40;;;;;;;;;;4950959;28;20204;-82
2023/06/26 13:46:54;;;;;;;3.23;1.20;;;;;;;;;;4950581;28;20206;-83
2023/06/26 13:49:23;;;;;;;5.03;1.33;;;;;;;;;;4951534;28;20199;-83
2023/06/26 13:51:51;;;;;;;3.73;1.60;;;;;;;;;;4951057;28;20216;-83
2023/06/26 13:54:21;;;;;;;1.37;1.20;;;;;;;;;;4950355;28;20232;-83
2023/06/26 13:56:50;;;;;;;1.30;1.20;;;;;;;;;;4951393;28;20278;-84
2023/06/26 13:59:18;;;;;;;2.27;1.33;;;;;;;;;;4951293;28;20204;-83
2023/06/26 14:01:49;;;;;;;2.80;1.57;;;;;;;;;;4950566;28;20212;-85
2023/06/26 14:04:18;;;;;;;2.37;1.60;;;;;;;;;;4951233;28;20209;-85
2023/06/26 14:06:46;;;;;;;5.83;2.80;;;;;;;;;;4950848;28;20201;-85
2023/06/26 14:09:15;;;;;;;1.90;1.27;;;;;;;;;;4950572;28;20210;-85
2023/06/26 14:11:45;;;;;;;1.90;1.00;;;;;;;;;;4950383;28;20209;-84
2023/06/26 14:14:14;;;;;;;4.20;1.57;;;;;;;;;;4950712;28;20220;-84
2023/06/26 14:16:42;;;;;;;2.23;1.40;;;;;;;;;;4950724;28;20362;-84
2023/06/26 14:19:15;;;;;;;3.73;1.60;;;;;;;;;;4950796;28;20224;-84
2023/06/26 14:21:43;;;;;;;6.13;2.20;;;;;;;;;;4950367;28;20205;-84
2023/06/26 14:24:12;;;;;;;0.97;0.97;;;;;;;;;;4950869;28;20307;-85
2023/06/26 14:26:40;;;;;;;1.73;1.07;;;;;;;;;;4950714;28;20209;-84
2023/06/26 14:29:10;;;;;;;2.07;0.70;;;;;;;;;;4950164;28;20209;-84
2023/06/26 14:31:39;;;;;;;4.90;1.57;;;;;;;;;;4950784;28;20205;-85
2023/06/26 14:34:07;;;;;;;0.80;0.80;;;;;;;;;;4950380;28;20202;-84
2023/06/26 14:36:37;;;;;;;10.57;1.67;;;;;;;;;;4950417;28;20209;-86
2023/06/26 14:39:07;;;;;;;3.17;1.73;;;;;;;;;;4950103;28;20223;-85
2023/06/26 14:41:36;;;;;;;0.90;0.90;;;;;;;;;;4950444;28;20234;-86
2023/06/26 14:44:08;;;;;;;2.03;1.33;;;;;;;;;;4950844;28;20210;-85
2023/06/26 14:46:38;;;;;;;0.93;0.87;;;;;;;;;;4951078;28;20209;-86
2023/06/26 14:49:07;;;;;;;2.53;1.20;;;;;;;;;;4953640;28;20206;-86
2023/06/26 14:51:35;;;;;;;1.37;1.03;;;;;;;;;;4953726;28;20206;-86
2023/06/26 14:54:04;;;;;;;4.60;1.37;;;;;;;;;;4953941;28;20201;-87
2023/06/26 14:56:32;;;;;;;3.10;1.70;;;;;;;;;;4953567;28;20233;-85
2023/06/26 14:59:01;;;;;;;3.53;1.50;;;;;;;;;;4953737;28;20211;-85